createdAt,value
2019-01-13T00:04:31.861Z,20.47
2019-01-13T00:09:35.669Z,20.47
2019-01-13T00:14:39.503Z,20.43
2019-01-13T00:19:43.446Z,20.43
2019-01-13T00:24:47.248Z,20.37
2019-01-13T00:29:51.045Z,20.38
2019-01-13T00:34:54.944Z,20.38
2019-01-13T00:39:58.862Z,20.38
2019-01-13T00:45:02.700Z,20.36
2019-01-13T00:50:08.762Z,20.37
2019-01-13T00:55:12.785Z,20.38
2019-01-13T01:00:26.495Z,20.38
2019-01-13T01:05:26.040Z,20.31
2019-01-13T01:10:29.850Z,20.31
2019-01-13T01:15:33.715Z,20.31
2019-01-13T01:20:37.556Z,20.30
2019-01-13T01:25:41.369Z,20.30
2019-01-13T01:30:45.228Z,20.24
2019-01-13T01:35:50.036Z,20.21
2019-01-13T01:40:54.121Z,20.21
2019-01-13T01:45:57.906Z,20.25
2019-01-13T01:51:01.704Z,20.22
2019-01-13T01:56:05.513Z,20.21
2019-01-13T02:01:09.349Z,20.18
2019-01-13T02:06:13.164Z,20.21
2019-01-13T02:11:16.958Z,20.19
2019-01-13T02:16:20.785Z,20.19
2019-01-13T02:21:24.591Z,20.18
2019-01-13T02:26:28.373Z,20.20
2019-01-13T02:31:32.213Z,20.19
2019-01-13T02:36:36.009Z,20.13
2019-01-13T02:41:39.833Z,20.13
2019-01-13T02:46:43.738Z,20.13
2019-01-13T02:51:47.549Z,20.13
2019-01-13T02:56:51.551Z,20.13
2019-01-13T03:01:55.482Z,20.09
2019-01-13T03:06:59.269Z,20.12
2019-01-13T03:12:03.075Z,20.12
2019-01-13T03:17:06.883Z,20.11
2019-01-13T03:22:10.666Z,20.12
2019-01-13T03:27:14.473Z,20.09
2019-01-13T03:32:18.289Z,20.09
2019-01-13T03:37:22.082Z,20.06
2019-01-13T03:42:26.050Z,20.07
2019-01-13T03:47:29.902Z,20.04
2019-01-13T03:52:33.789Z,20.04
2019-01-13T03:57:37.667Z,20.06
2019-01-13T04:02:42.460Z,20.09
2019-01-13T04:07:46.272Z,20.05
2019-01-13T04:12:50.213Z,20.07
2019-01-13T04:17:54.136Z,20.06
2019-01-13T04:22:57.919Z,20.06
2019-01-13T04:28:01.783Z,20.03
2019-01-13T04:33:05.597Z,20.03
2019-01-13T04:38:09.449Z,20.01
2019-01-13T04:43:13.352Z,20.01
2019-01-13T04:48:17.213Z,20.08
2019-01-13T04:53:21.013Z,20.05
2019-01-13T04:58:24.880Z,20.00
2019-01-13T05:03:28.685Z,20.00
2019-01-13T05:08:32.513Z,20.04
2019-01-13T05:13:36.343Z,20.04
2019-01-13T05:18:40.146Z,20.03
2019-01-13T05:23:44.033Z,20.02
2019-01-13T05:28:47.862Z,20.02
2019-01-13T05:33:51.808Z,20.00
2019-01-13T05:38:55.668Z,20.01
2019-01-13T05:43:59.468Z,20.03
2019-01-13T05:49:03.358Z,20.03
2019-01-13T05:54:07.218Z,20.01
2019-01-13T05:59:11.034Z,20.01
2019-01-13T06:04:14.853Z,20.01
2019-01-13T06:09:18.779Z,19.99
2019-01-13T06:14:22.587Z,20.00
2019-01-13T06:19:26.391Z,19.98
2019-01-13T06:24:30.260Z,19.98
2019-01-13T06:29:34.061Z,19.96
2019-01-13T06:34:37.882Z,19.99
2019-01-13T06:40:11.307Z,19.99
2019-01-13T06:45:18.691Z,19.97
2019-01-13T06:50:22.536Z,19.94
2019-01-13T06:55:26.331Z,19.94
2019-01-13T07:00:30.125Z,19.90
2019-01-13T07:05:33.942Z,19.81
2019-01-13T07:10:37.807Z,19.79
2019-01-13T07:15:41.596Z,19.76
2019-01-13T07:20:45.438Z,19.72
2019-01-13T07:25:49.244Z,19.69
2019-01-13T07:30:53.115Z,19.69
2019-01-13T07:35:56.964Z,19.65
2019-01-13T07:41:00.761Z,19.65
2019-01-13T07:46:04.628Z,19.65
2019-01-13T07:51:09.205Z,19.65
2019-01-13T07:56:13.174Z,19.66
2019-01-13T08:01:17.005Z,19.64
2019-01-13T08:06:20.814Z,19.64
2019-01-13T08:11:24.604Z,20.48
2019-01-13T08:16:28.419Z,20.98
2019-01-13T08:21:32.246Z,20.98
2019-01-13T08:26:36.067Z,21.31
2019-01-13T08:31:39.882Z,21.25
2019-01-13T08:36:43.694Z,21.15
2019-01-13T08:41:47.516Z,21.09
2019-01-13T08:46:51.316Z,18.40
2019-01-13T08:51:55.151Z,18.40
2019-01-13T08:56:58.962Z,20.24
2019-01-13T09:02:02.746Z,20.46
2019-01-13T09:07:06.645Z,20.65
2019-01-13T09:12:10.488Z,21.08
2019-01-13T09:17:14.308Z,20.92
2019-01-13T09:22:18.177Z,20.92
2019-01-13T09:27:21.968Z,20.82
2019-01-13T09:32:25.763Z,20.66
2019-01-13T09:37:29.571Z,20.66
2019-01-13T09:42:33.477Z,20.55
2019-01-13T09:47:37.402Z,20.47
2019-01-13T09:52:41.213Z,20.45
2019-01-13T09:57:45.008Z,20.50
2019-01-13T10:02:48.960Z,20.50
2019-01-13T10:07:52.803Z,20.69
2019-01-13T10:12:56.608Z,20.75
2019-01-13T10:18:00.444Z,20.75
2019-01-13T10:23:04.311Z,20.62
2019-01-13T10:28:08.148Z,20.62
2019-01-13T10:33:12.114Z,20.55
2019-01-13T10:38:15.935Z,20.50
2019-01-13T10:43:19.855Z,20.50
2019-01-13T10:48:23.759Z,20.44
2019-01-13T10:53:27.540Z,20.44
2019-01-13T10:58:31.353Z,20.62
2019-01-13T11:03:35.177Z,20.76
2019-01-13T11:08:39.023Z,20.77
2019-01-13T11:13:42.826Z,20.76
2019-01-13T11:18:46.648Z,20.76
2019-01-13T11:23:50.439Z,20.69
2019-01-13T11:28:54.296Z,20.64
2019-01-13T11:33:58.092Z,20.61
2019-01-13T11:39:01.884Z,20.61
2019-01-13T11:44:05.664Z,20.48
2019-01-13T11:49:09.547Z,20.46
2019-01-13T11:54:13.422Z,20.46
2019-01-13T11:59:17.343Z,20.70
2019-01-13T12:04:21.144Z,20.81
2019-01-13T12:09:24.929Z,20.81
2019-01-13T12:14:28.824Z,20.85
2019-01-13T12:19:32.597Z,20.82
2019-01-13T12:24:36.522Z,20.82
2019-01-13T12:29:40.304Z,20.75
2019-01-13T12:34:44.097Z,20.61
2019-01-13T12:39:47.914Z,20.61
2019-01-13T12:44:51.818Z,20.46
2019-01-13T12:49:55.760Z,20.46
2019-01-13T12:54:59.589Z,20.60
2019-01-13T13:00:04.029Z,20.74
2019-01-13T13:05:08.782Z,20.86
2019-01-13T13:10:18.436Z,20.85
2019-01-13T13:15:22.233Z,20.88
2019-01-13T13:20:26.017Z,20.83
2019-01-13T13:25:32.015Z,20.80
2019-01-13T13:30:35.330Z,20.80
2019-01-13T13:35:39.893Z,20.68
2019-01-13T13:40:44.164Z,20.68
2019-01-13T13:45:47.991Z,20.55
2019-01-13T13:50:52.068Z,20.56
2019-01-13T13:55:55.857Z,20.56
2019-01-13T14:00:59.634Z,20.86
2019-01-13T14:06:03.430Z,21.20
2019-01-13T14:11:07.235Z,21.20
2019-01-13T14:16:11.190Z,21.50
2019-01-13T14:21:14.967Z,21.59
2019-01-13T14:26:18.837Z,21.57
2019-01-13T14:31:22.615Z,21.67
2019-01-13T14:36:26.439Z,21.64
2019-01-13T14:41:30.212Z,21.64
2019-01-13T14:46:34.921Z,21.75
2019-01-13T14:51:38.909Z,21.74
2019-01-13T14:56:42.713Z,21.74
2019-01-13T15:01:46.549Z,21.84
2019-01-13T15:06:50.325Z,21.85
2019-01-13T15:11:54.105Z,21.88
2019-01-13T15:16:57.916Z,21.83
2019-01-13T15:22:01.719Z,21.84
2019-01-13T15:27:05.508Z,21.86
2019-01-13T15:32:09.289Z,21.86
2019-01-13T15:37:13.082Z,21.80
2019-01-13T15:42:16.859Z,21.80
2019-01-13T15:47:20.761Z,21.88
2019-01-13T15:52:24.570Z,21.91
2019-01-13T15:57:28.373Z,21.94
2019-01-13T16:02:32.168Z,21.95
2019-01-13T16:07:35.944Z,21.92
2019-01-13T16:12:39.760Z,21.99
2019-01-13T16:17:43.638Z,21.99
2019-01-13T16:22:47.441Z,22.08
2019-01-13T16:27:51.355Z,22.04
2019-01-13T16:32:55.241Z,22.04
2019-01-13T16:37:59.180Z,21.97
2019-01-13T16:43:03.017Z,22.07
2019-01-13T16:48:08.818Z,22.05
2019-01-13T16:53:12.674Z,22.04
2019-01-13T16:58:16.497Z,22.02
2019-01-13T17:03:20.345Z,22.14
2019-01-13T17:08:24.398Z,22.14
2019-01-13T17:13:28.377Z,22.30
2019-01-13T17:18:32.219Z,22.18
2019-01-13T17:23:36.405Z,22.26
2019-01-13T17:28:40.216Z,22.26
2019-01-13T17:33:44.068Z,22.18
2019-01-13T17:38:47.876Z,22.18
2019-01-13T17:43:54.655Z,22.10
2019-01-13T17:48:58.554Z,22.10
2019-01-13T17:54:02.351Z,22.19
2019-01-13T17:59:06.204Z,22.12
2019-01-13T18:04:10.096Z,22.12
2019-01-13T18:09:14.024Z,22.04
2019-01-13T18:14:19.224Z,22.04
2019-01-13T18:19:23.161Z,22.11
2019-01-13T18:24:27.084Z,22.07
2019-01-13T18:29:30.879Z,22.10
2019-01-13T18:34:34.672Z,22.13
2019-01-13T18:39:38.514Z,22.13
2019-01-13T18:44:42.362Z,22.13
2019-01-13T18:49:46.178Z,22.12
2019-01-13T18:54:50.146Z,22.07
2019-01-13T18:59:54.077Z,22.07
2019-01-13T19:04:57.898Z,22.02
2019-01-13T19:10:01.703Z,22.02
2019-01-13T19:15:08.252Z,22.07
2019-01-13T19:20:18.010Z,22.00
2019-01-13T19:25:24.918Z,22.06
2019-01-13T19:30:28.910Z,22.10
2019-01-13T19:35:34.193Z,22.10
2019-01-13T19:40:40.458Z,22.04
2019-01-13T19:45:44.266Z,22.04
2019-01-13T19:50:48.586Z,21.86
2019-01-13T19:55:52.379Z,21.86
2019-01-13T20:00:56.198Z,21.84
2019-01-13T20:06:00.018Z,21.89
2019-01-13T20:11:03.845Z,22.05
2019-01-13T20:16:07.631Z,21.98
2019-01-13T20:21:11.441Z,21.90
2019-01-13T20:26:15.247Z,21.79
2019-01-13T20:31:19.133Z,21.67
2019-01-13T20:36:23.090Z,21.67
2019-01-13T20:41:26.934Z,21.60
2019-01-13T20:46:30.732Z,21.60
2019-01-13T20:51:34.525Z,21.54
2019-01-13T20:56:38.376Z,21.35
2019-01-13T21:01:42.290Z,21.36
2019-01-13T21:06:46.083Z,21.28
2019-01-13T21:11:50.016Z,21.27
2019-01-13T21:16:53.910Z,21.24
2019-01-13T21:21:57.703Z,21.20
2019-01-13T21:27:01.495Z,21.20
2019-01-13T21:32:05.300Z,21.20
2019-01-13T21:37:09.372Z,21.14
2019-01-13T21:42:13.192Z,21.14
2019-01-13T21:47:17.085Z,21.07
2019-01-13T21:52:20.967Z,21.02
2019-01-13T21:57:24.767Z,21.04
2019-01-13T22:02:28.554Z,20.98
2019-01-13T22:07:32.409Z,20.98
2019-01-13T22:12:36.200Z,20.95
2019-01-13T22:17:40.010Z,20.92
2019-01-13T22:22:43.948Z,20.92
2019-01-13T22:27:47.769Z,20.90
2019-01-13T22:32:51.633Z,20.90
2019-01-13T22:37:56.151Z,20.89
2019-01-13T22:43:00.337Z,20.97
2019-01-13T22:48:04.281Z,20.86
2019-01-13T22:53:08.111Z,20.86
2019-01-13T22:58:12.031Z,20.88
2019-01-13T23:03:15.851Z,20.89
2019-01-13T23:08:19.646Z,20.89
2019-01-13T23:13:23.472Z,20.97
2019-01-13T23:18:27.339Z,20.95
2019-01-13T23:23:31.226Z,20.94
2019-01-13T23:28:35.142Z,20.91
2019-01-13T23:33:38.937Z,20.91
2019-01-13T23:38:42.768Z,20.86
2019-01-13T23:43:46.628Z,20.91
2019-01-13T23:48:50.640Z,20.86
2019-01-13T23:53:54.623Z,20.86
2019-01-13T23:58:58.529Z,20.87
